sensor_id;sensor_type;location;lat;lon;timestamp;P1;durP1;ratioP1;P2;durP2;ratioP2
37559;SDS011;23398;50.928;7.084;2023-12-20T00:00:57;3.28;;;2.97;;
37559;SDS011;23398;50.928;7.084;2023-12-20T00:03:23;3.10;;;2.80;;
37559;SDS011;23398;50.928;7.084;2023-12-20T00:05:49;3.53;;;3.22;;
37559;SDS011;23398;50.928;7.084;2023-12-20T00:08:14;3.85;;;3.13;;
37559;SDS011;23398;50.928;7.084;2023-12-20T00:10:40;2.92;;;2.65;;
37559;SDS011;23398;50.928;7.084;2023-12-20T00:13:06;3.35;;;3.05;;
37559;SDS011;23398;50.928;7.084;2023-12-20T00:15:32;3.92;;;3.20;;
37559;SDS011;23398;50.928;7.084;2023-12-20T00:17:58;3.22;;;2.92;;
37559;SDS011;23398;50.928;7.084;2023-12-20T00:20:24;3.58;;;3.28;;
37559;SDS011;23398;50.928;7.084;2023-12-20T00:22:50;3.35;;;3.05;;
37559;SDS011;23398;50.928;7.084;2023-12-20T00:25:15;4.32;;;3.13;;
37559;SDS011;23398;50.928;7.084;2023-12-20T00:27:41;3.58;;;3.20;;
37559;SDS011;23398;50.928;7.084;2023-12-20T00:30:07;3.45;;;3.15;;
37559;SDS011;23398;50.928;7.084;2023-12-20T00:32:34;3.90;;;3.50;;
37559;SDS011;23398;50.928;7.084;2023-12-20T00:35:00;3.47;;;3.17;;
37559;SDS011;23398;50.928;7.084;2023-12-20T00:37:26;3.40;;;3.10;;
37559;SDS011;23398;50.928;7.084;2023-12-20T00:39:51;3.90;;;3.20;;
37559;SDS011;23398;50.928;7.084;2023-12-20T00:42:17;4.65;;;3.25;;
37559;SDS011;23398;50.928;7.084;2023-12-20T00:44:42;3.22;;;2.92;;
37559;SDS011;23398;50.928;7.084;2023-12-20T00:47:08;3.22;;;2.92;;
37559;SDS011;23398;50.928;7.084;2023-12-20T00:49:34;3.53;;;3.00;;
37559;SDS011;23398;50.928;7.084;2023-12-20T00:51:59;3.15;;;2.40;;
37559;SDS011;23398;50.928;7.084;2023-12-20T00:54:25;2.60;;;2.40;;
37559;SDS011;23398;50.928;7.084;2023-12-20T00:56:50;2.53;;;2.33;;
37559;SDS011;23398;50.928;7.084;2023-12-20T00:59:16;2.63;;;2.13;;
37559;SDS011;23398;50.928;7.084;2023-12-20T01:01:43;2.53;;;2.33;;
37559;SDS011;23398;50.928;7.084;2023-12-20T01:04:08;2.20;;;2.00;;
37559;SDS011;23398;50.928;7.084;2023-12-20T01:06:34;2.53;;;2.33;;
37559;SDS011;23398;50.928;7.084;2023-12-20T01:08:59;3.78;;;2.17;;
37559;SDS011;23398;50.928;7.084;2023-12-20T01:11:25;2.75;;;2.20;;
37559;SDS011;23398;50.928;7.084;2023-12-20T01:13:51;2.65;;;2.25;;
37559;SDS011;23398;50.928;7.084;2023-12-20T01:16:16;3.58;;;2.22;;
37559;SDS011;23398;50.928;7.084;2023-12-20T01:18:42;2.50;;;2.00;;
37559;SDS011;23398;50.928;7.084;2023-12-20T01:21:07;2.55;;;2.10;;
37559;SDS011;23398;50.928;7.084;2023-12-20T01:23:33;3.25;;;2.22;;
37559;SDS011;23398;50.928;7.084;2023-12-20T01:25:58;3.90;;;2.05;;
37559;SDS011;23398;50.928;7.084;2023-12-20T01:28:27;2.20;;;2.00;;
37559;SDS011;23398;50.928;7.084;2023-12-20T01:30:53;3.17;;;2.22;;
37559;SDS011;23398;50.928;7.084;2023-12-20T01:33:19;2.58;;;1.80;;
37559;SDS011;23398;50.928;7.084;2023-12-20T01:35:44;2.13;;;1.90;;
37559;SDS011;23398;50.928;7.084;2023-12-20T01:38:10;2.42;;;1.70;;
37559;SDS011;23398;50.928;7.084;2023-12-20T01:40:35;3.95;;;1.88;;
37559;SDS011;23398;50.928;7.084;2023-12-20T01:43:02;2.72;;;1.90;;
37559;SDS011;23398;50.928;7.084;2023-12-20T01:45:31;3.72;;;2.35;;
37559;SDS011;23398;50.928;7.084;2023-12-20T01:47:57;3.33;;;2.33;;
37559;SDS011;23398;50.928;7.084;2023-12-20T01:50:24;2.53;;;2.10;;
37559;SDS011;23398;50.928;7.084;2023-12-20T01:52:49;3.45;;;2.42;;
37559;SDS011;23398;50.928;7.084;2023-12-20T01:55:17;3.75;;;2.53;;
37559;SDS011;23398;50.928;7.084;2023-12-20T01:57:44;5.50;;;3.00;;
37559;SDS011;23398;50.928;7.084;2023-12-20T02:00:11;4.20;;;2.92;;
37559;SDS011;23398;50.928;7.084;2023-12-20T02:02:38;4.10;;;3.08;;
37559;SDS011;23398;50.928;7.084;2023-12-20T02:05:05;4.60;;;3.08;;
37559;SDS011;23398;50.928;7.084;2023-12-20T02:07:31;5.50;;;4.05;;
37559;SDS011;23398;50.928;7.084;2023-12-20T02:09:57;7.05;;;4.55;;
37559;SDS011;23398;50.928;7.084;2023-12-20T02:12:22;5.63;;;4.30;;
37559;SDS011;23398;50.928;7.084;2023-12-20T02:14:48;8.93;;;4.32;;
37559;SDS011;23398;50.928;7.084;2023-12-20T02:17:15;5.93;;;4.70;;
37559;SDS011;23398;50.928;7.084;2023-12-20T02:19:40;7.03;;;5.03;;
37559;SDS011;23398;50.928;7.084;2023-12-20T02:22:15;9.38;;;4.88;;
37559;SDS011;23398;50.928;7.084;2023-12-20T02:24:40;8.18;;;5.57;;
37559;SDS011;23398;50.928;7.084;2023-12-20T02:27:06;6.63;;;4.57;;
37559;SDS011;23398;50.928;7.084;2023-12-20T02:29:33;8.27;;;5.20;;
37559;SDS011;23398;50.928;7.084;2023-12-20T02:31:59;7.30;;;4.93;;
37559;SDS011;23398;50.928;7.084;2023-12-20T02:34:25;6.60;;;4.80;;
37559;SDS011;23398;50.928;7.084;2023-12-20T02:36:50;7.13;;;4.57;;
37559;SDS011;23398;50.928;7.084;2023-12-20T02:39:16;7.47;;;4.50;;
37559;SDS011;23398;50.928;7.084;2023-12-20T02:41:43;5.53;;;4.18;;
37559;SDS011;23398;50.928;7.084;2023-12-20T02:44:08;8.07;;;4.25;;
37559;SDS011;23398;50.928;7.084;2023-12-20T02:46:34;7.97;;;3.53;;
37559;SDS011;23398;50.928;7.084;2023-12-20T02:49:00;7.47;;;3.60;;
37559;SDS011;23398;50.928;7.084;2023-12-20T02:51:25;5.72;;;3.25;;
37559;SDS011;23398;50.928;7.084;2023-12-20T02:53:51;7.82;;;3.50;;
37559;SDS011;23398;50.928;7.084;2023-12-20T02:56:16;5.40;;;3.28;;
37559;SDS011;23398;50.928;7.084;2023-12-20T02:58:42;8.55;;;3.13;;
37559;SDS011;23398;50.928;7.084;2023-12-20T03:01:07;4.63;;;2.50;;
37559;SDS011;23398;50.928;7.084;2023-12-20T03:03:33;4.63;;;2.65;;
37559;SDS011;23398;50.928;7.084;2023-12-20T03:05:59;5.30;;;2.42;;
37559;SDS011;23398;50.928;7.084;2023-12-20T03:08:25;6.03;;;2.60;;
37559;SDS011;23398;50.928;7.084;2023-12-20T03:10:50;6.15;;;2.40;;
37559;SDS011;23398;50.928;7.084;2023-12-20T03:13:16;4.35;;;2.08;;
37559;SDS011;23398;50.928;7.084;2023-12-20T03:15:41;8.27;;;1.92;;
37559;SDS011;23398;50.928;7.084;2023-12-20T03:18:07;3.33;;;1.63;;
37559;SDS011;23398;50.928;7.084;2023-12-20T03:20:32;5.85;;;2.30;;
37559;SDS011;23398;50.928;7.084;2023-12-20T03:22:59;5.63;;;1.92;;
37559;SDS011;23398;50.928;7.084;2023-12-20T03:25:25;8.88;;;1.90;;
37559;SDS011;23398;50.928;7.084;2023-12-20T03:27:51;5.85;;;1.90;;
37559;SDS011;23398;50.928;7.084;2023-12-20T03:30:18;4.60;;;1.90;;
37559;SDS011;23398;50.928;7.084;2023-12-20T03:32:43;4.30;;;1.70;;
37559;SDS011;23398;50.928;7.084;2023-12-20T03:35:09;5.03;;;1.52;;
37559;SDS011;23398;50.928;7.084;2023-12-20T03:37:35;4.28;;;1.70;;
37559;SDS011;23398;50.928;7.084;2023-12-20T03:40:01;7.45;;;1.92;;
37559;SDS011;23398;50.928;7.084;2023-12-20T03:42:26;4.78;;;1.60;;
37559;SDS011;23398;50.928;7.084;2023-12-20T03:44:52;4.22;;;1.60;;
37559;SDS011;23398;50.928;7.084;2023-12-20T03:47:17;6.80;;;2.30;;
37559;SDS011;23398;50.928;7.084;2023-12-20T03:49:43;6.03;;;1.65;;
37559;SDS011;23398;50.928;7.084;2023-12-20T03:52:08;5.78;;;1.80;;
37559;SDS011;23398;50.928;7.084;2023-12-20T03:54:37;3.80;;;1.70;;
37559;SDS011;23398;50.928;7.084;2023-12-20T03:57:02;4.97;;;1.60;;
37559;SDS011;23398;50.928;7.084;2023-12-20T03:59:28;3.63;;;1.63;;
37559;SDS011;23398;50.928;7.084;2023-12-20T04:01:54;5.97;;;1.88;;
37559;SDS011;23398;50.928;7.084;2023-12-20T04:04:20;4.50;;;1.52;;
37559;SDS011;23398;50.928;7.084;2023-12-20T04:06:45;5.35;;;1.67;;
37559;SDS011;23398;50.928;7.084;2023-12-20T04:09:11;7.78;;;1.90;;
37559;SDS011;23398;50.928;7.084;2023-12-20T04:11:37;9.00;;;1.70;;
37559;SDS011;23398;50.928;7.084;2023-12-20T04:14:03;4.85;;;1.85;;
37559;SDS011;23398;50.928;7.084;2023-12-20T04:16:32;6.90;;;2.13;;
37559;SDS011;23398;50.928;7.084;2023-12-20T04:18:57;3.92;;;1.50;;
37559;SDS011;23398;50.928;7.084;2023-12-20T04:21:23;5.68;;;2.13;;
37559;SDS011;23398;50.928;7.084;2023-12-20T04:23:49;7.63;;;1.75;;
37559;SDS011;23398;50.928;7.084;2023-12-20T04:26:14;7.30;;;1.90;;
37559;SDS011;23398;50.928;7.084;2023-12-20T04:28:40;6.45;;;2.05;;
37559;SDS011;23398;50.928;7.084;2023-12-20T04:31:05;4.40;;;1.73;;
37559;SDS011;23398;50.928;7.084;2023-12-20T04:33:31;5.20;;;1.73;;
37559;SDS011;23398;50.928;7.084;2023-12-20T04:35:56;7.40;;;2.00;;
37559;SDS011;23398;50.928;7.084;2023-12-20T04:38:22;9.85;;;2.17;;
37559;SDS011;23398;50.928;7.084;2023-12-20T04:40:48;8.25;;;2.10;;
37559;SDS011;23398;50.928;7.084;2023-12-20T04:43:13;4.78;;;1.73;;
37559;SDS011;23398;50.928;7.084;2023-12-20T04:45:39;5.82;;;1.75;;
37559;SDS011;23398;50.928;7.084;2023-12-20T04:48:04;8.98;;;2.17;;
37559;SDS011;23398;50.928;7.084;2023-12-20T04:50:30;5.18;;;1.98;;
37559;SDS011;23398;50.928;7.084;2023-12-20T04:52:56;5.82;;;1.73;;
37559;SDS011;23398;50.928;7.084;2023-12-20T04:55:21;4.72;;;1.80;;
37559;SDS011;23398;50.928;7.084;2023-12-20T04:57:47;5.30;;;1.90;;
37559;SDS011;23398;50.928;7.084;2023-12-20T05:00:13;5.30;;;1.98;;
37559;SDS011;23398;50.928;7.084;2023-12-20T05:02:40;8.55;;;2.10;;
37559;SDS011;23398;50.928;7.084;2023-12-20T05:05:06;5.18;;;1.70;;
37559;SDS011;23398;50.928;7.084;2023-12-20T05:07:32;9.52;;;2.20;;
37559;SDS011;23398;50.928;7.084;2023-12-20T05:09:58;5.32;;;2.05;;
37559;SDS011;23398;50.928;7.084;2023-12-20T05:12:24;8.18;;;2.03;;
37559;SDS011;23398;50.928;7.084;2023-12-20T05:14:49;7.90;;;2.70;;
37559;SDS011;23398;50.928;7.084;2023-12-20T05:17:16;8.07;;;2.25;;
37559;SDS011;23398;50.928;7.084;2023-12-20T05:19:41;4.30;;;1.92;;
37559;SDS011;23398;50.928;7.084;2023-12-20T05:22:07;5.70;;;2.20;;
37559;SDS011;23398;50.928;7.084;2023-12-20T05:24:32;5.93;;;2.03;;
37559;SDS011;23398;50.928;7.084;2023-12-20T05:26:58;5.05;;;2.13;;
37559;SDS011;23398;50.928;7.084;2023-12-20T05:29:24;9.70;;;3.30;;
37559;SDS011;23398;50.928;7.084;2023-12-20T05:31:49;6.55;;;2.80;;
37559;SDS011;23398;50.928;7.084;2023-12-20T05:34:15;6.60;;;2.42;;
37559;SDS011;23398;50.928;7.084;2023-12-20T05:36:40;7.18;;;2.85;;
37559;SDS011;23398;50.928;7.084;2023-12-20T05:39:06;7.85;;;2.42;;
37559;SDS011;23398;50.928;7.084;2023-12-20T05:41:32;5.40;;;2.80;;
37559;SDS011;23398;50.928;7.084;2023-12-20T05:43:58;6.30;;;2.40;;
37559;SDS011;23398;50.928;7.084;2023-12-20T05:46:24;7.85;;;2.33;;
37559;SDS011;23398;50.928;7.084;2023-12-20T05:48:50;5.22;;;2.38;;
37559;SDS011;23398;50.928;7.084;2023-12-20T05:51:16;4.88;;;2.28;;
37559;SDS011;23398;50.928;7.084;2023-12-20T05:53:43;8.27;;;2.72;;
37559;SDS011;23398;50.928;7.084;2023-12-20T05:56:09;4.65;;;2.35;;
37559;SDS011;23398;50.928;7.084;2023-12-20T05:58:35;8.02;;;2.38;;
37559;SDS011;23398;50.928;7.084;2023-12-20T06:01:00;6.15;;;2.50;;
37559;SDS011;23398;50.928;7.084;2023-12-20T06:03:28;5.20;;;2.40;;
37559;SDS011;23398;50.928;7.084;2023-12-20T06:05:54;8.02;;;2.25;;
37559;SDS011;23398;50.928;7.084;2023-12-20T06:08:20;10.00;;;2.40;;
37559;SDS011;23398;50.928;7.084;2023-12-20T06:10:45;8.93;;;3.10;;
37559;SDS011;23398;50.928;7.084;2023-12-20T06:13:11;6.78;;;2.67;;
37559;SDS011;23398;50.928;7.084;2023-12-20T06:15:38;7.85;;;2.85;;
37559;SDS011;23398;50.928;7.084;2023-12-20T06:18:03;6.63;;;2.72;;
37559;SDS011;23398;50.928;7.084;2023-12-20T06:20:29;5.90;;;2.22;;
37559;SDS011;23398;50.928;7.084;2023-12-20T06:22:55;6.13;;;2.60;;
37559;SDS011;23398;50.928;7.084;2023-12-20T06:25:20;5.80;;;2.28;;
37559;SDS011;23398;50.928;7.084;2023-12-20T06:27:46;6.72;;;2.47;;
37559;SDS011;23398;50.928;7.084;2023-12-20T06:30:11;7.13;;;2.30;;
37559;SDS011;23398;50.928;7.084;2023-12-20T06:32:37;10.85;;;2.92;;
37559;SDS011;23398;50.928;7.084;2023-12-20T06:35:04;7.68;;;2.50;;
37559;SDS011;23398;50.928;7.084;2023-12-20T06:37:30;8.63;;;2.10;;
37559;SDS011;23398;50.928;7.084;2023-12-20T06:39:56;6.20;;;2.15;;
37559;SDS011;23398;50.928;7.084;2023-12-20T06:42:22;7.15;;;2.28;;
37559;SDS011;23398;50.928;7.084;2023-12-20T06:44:47;6.90;;;2.47;;
37559;SDS011;23398;50.928;7.084;2023-12-20T06:47:13;7.82;;;2.40;;
37559;SDS011;23398;50.928;7.084;2023-12-20T06:49:39;5.20;;;2.20;;
37559;SDS011;23398;50.928;7.084;2023-12-20T06:52:05;7.72;;;2.28;;
37559;SDS011;23398;50.928;7.084;2023-12-20T06:54:31;8.65;;;2.30;;
37559;SDS011;23398;50.928;7.084;2023-12-20T06:56:59;10.18;;;2.33;;
37559;SDS011;23398;50.928;7.084;2023-12-20T06:59:24;8.07;;;2.72;;
37559;SDS011;23398;50.928;7.084;2023-12-20T07:01:51;10.00;;;2.60;;
37559;SDS011;23398;50.928;7.084;2023-12-20T07:04:16;5.05;;;2.20;;
37559;SDS011;23398;50.928;7.084;2023-12-20T07:06:47;4.20;;;2.35;;
37559;SDS011;23398;50.928;7.084;2023-12-20T07:09:13;5.68;;;2.28;;
37559;SDS011;23398;50.928;7.084;2023-12-20T07:11:39;7.63;;;2.70;;
37559;SDS011;23398;50.928;7.084;2023-12-20T07:14:05;4.72;;;2.17;;
37559;SDS011;23398;50.928;7.084;2023-12-20T07:16:30;8.25;;;2.55;;
37559;SDS011;23398;50.928;7.084;2023-12-20T07:18:56;7.05;;;2.28;;
37559;SDS011;23398;50.928;7.084;2023-12-20T07:21:22;8.10;;;2.40;;
37559;SDS011;23398;50.928;7.084;2023-12-20T07:23:48;8.00;;;2.45;;
37559;SDS011;23398;50.928;7.084;2023-12-20T07:26:14;6.93;;;2.10;;
37559;SDS011;23398;50.928;7.084;2023-12-20T07:28:40;6.50;;;2.13;;
37559;SDS011;23398;50.928;7.084;2023-12-20T07:31:05;8.07;;;2.22;;
37559;SDS011;23398;50.928;7.084;2023-12-20T07:33:31;5.45;;;2.13;;
37559;SDS011;23398;50.928;7.084;2023-12-20T07:35:57;5.72;;;2.08;;
37559;SDS011;23398;50.928;7.084;2023-12-20T07:38:24;5.93;;;1.95;;
37559;SDS011;23398;50.928;7.084;2023-12-20T07:40:49;4.05;;;2.20;;
37559;SDS011;23398;50.928;7.084;2023-12-20T07:43:15;6.05;;;2.45;;
37559;SDS011;23398;50.928;7.084;2023-12-20T07:45:40;8.85;;;2.67;;
37559;SDS011;23398;50.928;7.084;2023-12-20T07:48:06;4.43;;;1.98;;
37559;SDS011;23398;50.928;7.084;2023-12-20T07:50:32;6.00;;;2.30;;
37559;SDS011;23398;50.928;7.084;2023-12-20T07:52:58;8.00;;;2.25;;
37559;SDS011;23398;50.928;7.084;2023-12-20T07:55:25;8.88;;;2.90;;
37559;SDS011;23398;50.928;7.084;2023-12-20T07:57:51;5.68;;;2.42;;
37559;SDS011;23398;50.928;7.084;2023-12-20T08:00:17;6.70;;;3.10;;
37559;SDS011;23398;50.928;7.084;2023-12-20T08:02:43;6.82;;;2.85;;
37559;SDS011;23398;50.928;7.084;2023-12-20T08:05:09;6.45;;;2.63;;
37559;SDS011;23398;50.928;7.084;2023-12-20T08:07:34;5.72;;;2.45;;
37559;SDS011;23398;50.928;7.084;2023-12-20T08:10:00;7.40;;;2.70;;
37559;SDS011;23398;50.928;7.084;2023-12-20T08:12:25;7.78;;;2.42;;
37559;SDS011;23398;50.928;7.084;2023-12-20T08:14:52;5.25;;;2.55;;
37559;SDS011;23398;50.928;7.084;2023-12-20T08:17:18;10.50;;;2.67;;
37559;SDS011;23398;50.928;7.084;2023-12-20T08:19:44;6.20;;;2.60;;
37559;SDS011;23398;50.928;7.084;2023-12-20T08:22:09;10.63;;;3.10;;
37559;SDS011;23398;50.928;7.084;2023-12-20T08:24:35;7.65;;;2.78;;
37559;SDS011;23398;50.928;7.084;2023-12-20T08:27:01;6.57;;;2.50;;
37559;SDS011;23398;50.928;7.084;2023-12-20T08:29:26;5.72;;;2.10;;
37559;SDS011;23398;50.928;7.084;2023-12-20T08:31:52;6.68;;;2.28;;
37559;SDS011;23398;50.928;7.084;2023-12-20T08:34:19;10.23;;;2.40;;
37559;SDS011;23398;50.928;7.084;2023-12-20T08:36:44;6.68;;;2.20;;
37559;SDS011;23398;50.928;7.084;2023-12-20T08:39:10;7.32;;;2.50;;
37559;SDS011;23398;50.928;7.084;2023-12-20T08:41:36;6.95;;;2.53;;
37559;SDS011;23398;50.928;7.084;2023-12-20T08:44:02;9.93;;;2.97;;
37559;SDS011;23398;50.928;7.084;2023-12-20T08:46:28;7.65;;;2.70;;
37559;SDS011;23398;50.928;7.084;2023-12-20T08:48:54;7.30;;;2.65;;
37559;SDS011;23398;50.928;7.084;2023-12-20T08:51:20;9.02;;;2.63;;
37559;SDS011;23398;50.928;7.084;2023-12-20T08:53:47;5.70;;;2.22;;
37559;SDS011;23398;50.928;7.084;2023-12-20T08:56:14;8.20;;;2.83;;
37559;SDS011;23398;50.928;7.084;2023-12-20T08:58:40;4.65;;;2.30;;
37559;SDS011;23398;50.928;7.084;2023-12-20T09:01:05;4.75;;;2.10;;
37559;SDS011;23398;50.928;7.084;2023-12-20T09:03:32;8.75;;;2.22;;
37559;SDS011;23398;50.928;7.084;2023-12-20T09:05:58;6.57;;;2.40;;
37559;SDS011;23398;50.928;7.084;2023-12-20T09:08:23;6.05;;;2.17;;
37559;SDS011;23398;50.928;7.084;2023-12-20T09:10:49;7.10;;;2.40;;
37559;SDS011;23398;50.928;7.084;2023-12-20T09:13:14;8.30;;;2.58;;
37559;SDS011;23398;50.928;7.084;2023-12-20T09:15:40;5.55;;;2.22;;
37559;SDS011;23398;50.928;7.084;2023-12-20T09:18:06;5.90;;;2.22;;
37559;SDS011;23398;50.928;7.084;2023-12-20T09:20:31;6.50;;;2.10;;
37559;SDS011;23398;50.928;7.084;2023-12-20T09:22:57;7.85;;;2.33;;
37559;SDS011;23398;50.928;7.084;2023-12-20T09:25:23;4.65;;;2.00;;
37559;SDS011;23398;50.928;7.084;2023-12-20T09:27:49;6.60;;;2.25;;
37559;SDS011;23398;50.928;7.084;2023-12-20T09:30:14;5.32;;;2.10;;
37559;SDS011;23398;50.928;7.084;2023-12-20T09:32:40;4.47;;;1.90;;
37559;SDS011;23398;50.928;7.084;2023-12-20T09:35:05;6.50;;;2.20;;
37559;SDS011;23398;50.928;7.084;2023-12-20T09:37:33;7.70;;;2.03;;
37559;SDS011;23398;50.928;7.084;2023-12-20T09:39:59;6.07;;;2.10;;
37559;SDS011;23398;50.928;7.084;2023-12-20T09:42:25;6.55;;;2.30;;
37559;SDS011;23398;50.928;7.084;2023-12-20T09:45:01;6.57;;;2.40;;
37559;SDS011;23398;50.928;7.084;2023-12-20T09:47:28;4.57;;;2.05;;
37559;SDS011;23398;50.928;7.084;2023-12-20T09:49:54;6.85;;;2.17;;
37559;SDS011;23398;50.928;7.084;2023-12-20T09:52:20;4.50;;;2.17;;
37559;SDS011;23398;50.928;7.084;2023-12-20T09:54:49;6.70;;;2.40;;
37559;SDS011;23398;50.928;7.084;2023-12-20T09:57:17;6.43;;;1.98;;
37559;SDS011;23398;50.928;7.084;2023-12-20T09:59:43;5.70;;;2.22;;
37559;SDS011;23398;50.928;7.084;2023-12-20T10:02:09;8.02;;;2.10;;
37559;SDS011;23398;50.928;7.084;2023-12-20T10:04:41;6.30;;;1.95;;
37559;SDS011;23398;50.928;7.084;2023-12-20T10:07:13;5.90;;;2.47;;
37559;SDS011;23398;50.928;7.084;2023-12-20T10:09:38;3.80;;;1.70;;
37559;SDS011;23398;50.928;7.084;2023-12-20T10:12:05;5.63;;;2.10;;
37559;SDS011;23398;50.928;7.084;2023-12-20T10:14:32;7.28;;;2.05;;
37559;SDS011;23398;50.928;7.084;2023-12-20T10:17:04;6.10;;;2.05;;
37559;SDS011;23398;50.928;7.084;2023-12-20T10:19:31;6.45;;;2.33;;
37559;SDS011;23398;50.928;7.084;2023-12-20T10:21:57;4.35;;;2.03;;
37559;SDS011;23398;50.928;7.084;2023-12-20T10:24:24;8.10;;;2.15;;
37559;SDS011;23398;50.928;7.084;2023-12-20T10:27:00;7.90;;;2.17;;
37559;SDS011;23398;50.928;7.084;2023-12-20T10:29:31;5.70;;;2.30;;
37559;SDS011;23398;50.928;7.084;2023-12-20T10:32:22;6.60;;;2.40;;
37559;SDS011;23398;50.928;7.084;2023-12-20T10:34:49;7.18;;;2.42;;
37559;SDS011;23398;50.928;7.084;2023-12-20T10:37:19;5.68;;;1.90;;
37559;SDS011;23398;50.928;7.084;2023-12-20T10:39:52;5.13;;;2.00;;
37559;SDS011;23398;50.928;7.084;2023-12-20T10:42:22;4.70;;;1.95;;
37559;SDS011;23398;50.928;7.084;2023-12-20T10:44:51;6.03;;;2.08;;
37559;SDS011;23398;50.928;7.084;2023-12-20T10:47:19;5.47;;;1.85;;
37559;SDS011;23398;50.928;7.084;2023-12-20T10:49:45;7.75;;;2.25;;
37559;SDS011;23398;50.928;7.084;2023-12-20T10:52:12;6.95;;;1.83;;
37559;SDS011;23398;50.928;7.084;2023-12-20T10:54:40;6.50;;;1.95;;
37559;SDS011;23398;50.928;7.084;2023-12-20T10:57:06;5.43;;;1.80;;
37559;SDS011;23398;50.928;7.084;2023-12-20T10:59:38;7.53;;;1.95;;
37559;SDS011;23398;50.928;7.084;2023-12-20T11:02:06;4.85;;;1.88;;
37559;SDS011;23398;50.928;7.084;2023-12-20T11:04:52;7.57;;;2.50;;
37559;SDS011;23398;50.928;7.084;2023-12-20T11:07:34;5.60;;;2.42;;
37559;SDS011;23398;50.928;7.084;2023-12-20T11:13:01;9.00;;;1.92;;
37559;SDS011;23398;50.928;7.084;2023-12-20T11:15:36;4.35;;;1.83;;
37559;SDS011;23398;50.928;7.084;2023-12-20T11:18:02;5.78;;;1.63;;
37559;SDS011;23398;50.928;7.084;2023-12-20T11:20:40;7.63;;;2.25;;
37559;SDS011;23398;50.928;7.084;2023-12-20T11:23:07;5.40;;;1.95;;
37559;SDS011;23398;50.928;7.084;2023-12-20T11:25:51;5.85;;;1.92;;
37559;SDS011;23398;50.928;7.084;2023-12-20T11:28:24;6.35;;;2.00;;
37559;SDS011;23398;50.928;7.084;2023-12-20T11:30:54;6.47;;;2.17;;
37559;SDS011;23398;50.928;7.084;2023-12-20T11:33:25;7.47;;;1.85;;
37559;SDS011;23398;50.928;7.084;2023-12-20T11:35:51;4.75;;;2.03;;
37559;SDS011;23398;50.928;7.084;2023-12-20T11:38:20;4.25;;;1.65;;
37559;SDS011;23398;50.928;7.084;2023-12-20T11:40:47;4.97;;;1.70;;
37559;SDS011;23398;50.928;7.084;2023-12-20T11:43:29;3.85;;;1.70;;
37559;SDS011;23398;50.928;7.084;2023-12-20T11:45:56;6.15;;;2.03;;
37559;SDS011;23398;50.928;7.084;2023-12-20T11:48:31;8.40;;;2.22;;
37559;SDS011;23398;50.928;7.084;2023-12-20T11:50:57;5.00;;;1.88;;
37559;SDS011;23398;50.928;7.084;2023-12-20T11:53:23;5.78;;;1.70;;
37559;SDS011;23398;50.928;7.084;2023-12-20T11:55:49;5.78;;;2.03;;
37559;SDS011;23398;50.928;7.084;2023-12-20T11:58:15;6.55;;;1.90;;
37559;SDS011;23398;50.928;7.084;2023-12-20T12:00:41;7.43;;;2.72;;
37559;SDS011;23398;50.928;7.084;2023-12-20T12:03:08;6.35;;;2.22;;
37559;SDS011;23398;50.928;7.084;2023-12-20T12:05:34;6.03;;;2.10;;
37559;SDS011;23398;50.928;7.084;2023-12-20T12:08:00;4.80;;;1.95;;
37559;SDS011;23398;50.928;7.084;2023-12-20T12:10:27;6.00;;;2.15;;
37559;SDS011;23398;50.928;7.084;2023-12-20T12:12:53;5.40;;;2.00;;
37559;SDS011;23398;50.928;7.084;2023-12-20T12:15:19;7.00;;;1.88;;
37559;SDS011;23398;50.928;7.084;2023-12-20T12:17:52;6.63;;;2.17;;
37559;SDS011;23398;50.928;7.084;2023-12-20T12:20:22;5.75;;;1.95;;
37559;SDS011;23398;50.928;7.084;2023-12-20T12:23:01;8.27;;;1.88;;
37559;SDS011;23398;50.928;7.084;2023-12-20T12:25:31;6.13;;;1.95;;
37559;SDS011;23398;50.928;7.084;2023-12-20T12:28:00;6.22;;;1.90;;
37559;SDS011;23398;50.928;7.084;2023-12-20T12:30:27;4.68;;;1.85;;
37559;SDS011;23398;50.928;7.084;2023-12-20T12:32:53;6.25;;;2.28;;
37559;SDS011;23398;50.928;7.084;2023-12-20T12:35:19;4.65;;;2.00;;
37559;SDS011;23398;50.928;7.084;2023-12-20T12:37:45;4.82;;;1.92;;
37559;SDS011;23398;50.928;7.084;2023-12-20T12:40:12;4.40;;;1.80;;
37559;SDS011;23398;50.928;7.084;2023-12-20T12:42:42;4.82;;;1.95;;
37559;SDS011;23398;50.928;7.084;2023-12-20T12:45:09;7.20;;;2.13;;
37559;SDS011;23398;50.928;7.084;2023-12-20T12:47:35;7.78;;;2.58;;
37559;SDS011;23398;50.928;7.084;2023-12-20T12:50:01;6.30;;;2.05;;
37559;SDS011;23398;50.928;7.084;2023-12-20T12:52:27;4.55;;;1.95;;
37559;SDS011;23398;50.928;7.084;2023-12-20T12:54:52;4.78;;;1.95;;
37559;SDS011;23398;50.928;7.084;2023-12-20T12:57:18;3.70;;;1.70;;
37559;SDS011;23398;50.928;7.084;2023-12-20T12:59:44;4.82;;;2.08;;
37559;SDS011;23398;50.928;7.084;2023-12-20T13:02:13;4.72;;;1.80;;
37559;SDS011;23398;50.928;7.084;2023-12-20T13:04:39;7.13;;;2.17;;
37559;SDS011;23398;50.928;7.084;2023-12-20T13:07:06;5.25;;;1.98;;
37559;SDS011;23398;50.928;7.084;2023-12-20T13:09:32;9.70;;;2.20;;
37559;SDS011;23398;50.928;7.084;2023-12-20T13:11:58;5.50;;;2.30;;
37559;SDS011;23398;50.928;7.084;2023-12-20T13:14:24;5.50;;;2.13;;
37559;SDS011;23398;50.928;7.084;2023-12-20T13:16:50;6.20;;;2.10;;
37559;SDS011;23398;50.928;7.084;2023-12-20T13:19:15;5.15;;;1.98;;
37559;SDS011;23398;50.928;7.084;2023-12-20T13:21:41;5.10;;;1.80;;
37559;SDS011;23398;50.928;7.084;2023-12-20T13:24:06;4.25;;;1.90;;
37559;SDS011;23398;50.928;7.084;2023-12-20T13:26:32;7.13;;;2.28;;
37559;SDS011;23398;50.928;7.084;2023-12-20T13:28:58;7.20;;;2.20;;
37559;SDS011;23398;50.928;7.084;2023-12-20T13:31:23;6.28;;;1.98;;
37559;SDS011;23398;50.928;7.084;2023-12-20T13:33:49;7.68;;;2.20;;
37559;SDS011;23398;50.928;7.084;2023-12-20T13:36:14;8.50;;;2.28;;
37559;SDS011;23398;50.928;7.084;2023-12-20T13:38:40;6.72;;;2.17;;
37559;SDS011;23398;50.928;7.084;2023-12-20T13:41:06;5.95;;;2.10;;
37559;SDS011;23398;50.928;7.084;2023-12-20T13:43:31;4.38;;;2.05;;
37559;SDS011;23398;50.928;7.084;2023-12-20T13:45:58;4.63;;;2.05;;
37559;SDS011;23398;50.928;7.084;2023-12-20T13:48:24;5.72;;;2.13;;
37559;SDS011;23398;50.928;7.084;2023-12-20T13:50:50;7.60;;;2.50;;
37559;SDS011;23398;50.928;7.084;2023-12-20T13:53:16;4.88;;;1.90;;
37559;SDS011;23398;50.928;7.084;2023-12-20T13:55:41;5.68;;;1.75;;
37559;SDS011;23398;50.928;7.084;2023-12-20T13:58:07;3.83;;;1.90;;
37559;SDS011;23398;50.928;7.084;2023-12-20T14:00:35;6.90;;;2.40;;
37559;SDS011;23398;50.928;7.084;2023-12-20T14:03:01;3.50;;;1.88;;
37559;SDS011;23398;50.928;7.084;2023-12-20T14:05:28;3.55;;;1.85;;
37559;SDS011;23398;50.928;7.084;2023-12-20T14:07:53;5.88;;;1.90;;
37559;SDS011;23398;50.928;7.084;2023-12-20T14:10:19;4.50;;;1.70;;
37559;SDS011;23398;50.928;7.084;2023-12-20T14:12:44;5.82;;;2.25;;
37559;SDS011;23398;50.928;7.084;2023-12-20T14:15:10;4.97;;;1.90;;
37559;SDS011;23398;50.928;7.084;2023-12-20T14:17:38;7.68;;;2.00;;
37559;SDS011;23398;50.928;7.084;2023-12-20T14:20:07;7.43;;;2.10;;
37559;SDS011;23398;50.928;7.084;2023-12-20T14:22:33;6.70;;;1.88;;
37559;SDS011;23398;50.928;7.084;2023-12-20T14:24:59;4.93;;;2.00;;
37559;SDS011;23398;50.928;7.084;2023-12-20T14:27:25;5.88;;;1.80;;
37559;SDS011;23398;50.928;7.084;2023-12-20T14:29:53;5.60;;;1.90;;
37559;SDS011;23398;50.928;7.084;2023-12-20T14:32:19;3.75;;;2.13;;
37559;SDS011;23398;50.928;7.084;2023-12-20T14:34:45;2.55;;;1.42;;
37559;SDS011;23398;50.928;7.084;2023-12-20T14:37:11;6.47;;;2.00;;
37559;SDS011;23398;50.928;7.084;2023-12-20T14:39:37;3.17;;;1.67;;
37559;SDS011;23398;50.928;7.084;2023-12-20T14:42:06;5.68;;;1.77;;
37559;SDS011;23398;50.928;7.084;2023-12-20T14:44:38;5.38;;;1.98;;
37559;SDS011;23398;50.928;7.084;2023-12-20T14:47:05;6.72;;;2.08;;